WetterOnline ( https://www.wetteronline.ch )

Wetter aktuell Gerlingen

Aktuelles Wetter: Schnarrenberg/Stuttgart (315m)

6-stündlich | Neueste Meldungen
Ortszeit Temperatur Wetter
Di, 17.09. 20:00 16.7° C wolkenlos
Di, 17.09. 14:00 17.3° C wolkig
Di, 17.09. 8:00 15.1° C bedeckt
Di, 17.09. 2:00 17.3° C bewölkt
Mo, 16.09. 20:00 21.5° C bedeckt
Mo, 16.09. 14:00 24.1° C bewölkt
Mo, 16.09. 8:00 13.7° C bewölkt
Mo, 16.09. 2:00 16.4° C leicht bewölkt
Ortszeit Temperatur Wetter
Di, 17.09. 21:30 15.5° C bewölkt
Di, 17.09. 21:20 15.5° C bewölkt
Di, 17.09. 21:10 15.8° C bewölkt
Di, 17.09. 21:00 16.0° C bewölkt
Di, 17.09. 20:50 16.0° C bewölkt
Di, 17.09. 20:40 15.9° C bewölkt
Di, 17.09. 20:30 16.1° C leicht bewölkt
Di, 17.09. 20:00 16.7° C wolkenlos
Di, 17.09. 19:30 17.1° C wolkenlos
Di, 17.09. 19:00 17.8° C wolkenlos
Di, 17.09. 18:30 18.2° C wolkenlos
Ortszeit Relative Feuchte Sichtweite
Di, 17.09. 20:00 60% 60 km
Di, 17.09. 14:00 63% 45 km
Di, 17.09. 8:00 87% 24 km
Di, 17.09. 2:00 67% 60 km
Mo, 16.09. 20:00 44% 60 km
Mo, 16.09. 14:00 43% 65 km
Mo, 16.09. 8:00 96% 23 km
Mo, 16.09. 2:00 83% 45 km
Ortszeit Relative Feuchte Sichtweite
Di, 17.09. 21:30 57% 50 km
Di, 17.09. 21:20 57% -
Di, 17.09. 21:10 57% -
Di, 17.09. 21:00 58% 50 km
Di, 17.09. 20:50 58% -
Di, 17.09. 20:40 64% -
Di, 17.09. 20:30 63% 55 km
Di, 17.09. 20:00 60% 60 km
Di, 17.09. 19:30 58% 60 km
Di, 17.09. 19:00 53% 55 km
Di, 17.09. 18:30 54% 55 km
Ortszeit Niederschlagsmenge Niederschlagsart
Di, 17.09. 20:00 0.1 l/m2 in 12 Std. -
Di, 17.09. 14:00 0.1 l/m2 in 6 Std. Regen
Di, 17.09. 8:00 0.1 l/m2 in 12 Std. Regen
Di, 17.09. 2:00 0.0 l/m2 in 6 Std. -
Mo, 16.09. 20:00 0.0 l/m2 in 12 Std. -
Mo, 16.09. 14:00 0.0 l/m2 in 6 Std. -
Mo, 16.09. 8:00 0.0 l/m2 in 12 Std. -
Mo, 16.09. 2:00 0.0 l/m2 in 6 Std. -
Ortszeit Niederschlagsmenge Niederschlagsart
Di, 17.09. 21:30 0.0 l/m2 in 1 Std. -
Di, 17.09. 21:20 keine Meldung -
Di, 17.09. 21:10 keine Meldung -
Di, 17.09. 21:00 0.0 l/m2 in 1 Std. -
Di, 17.09. 20:50 keine Meldung -
Di, 17.09. 20:40 keine Meldung -
Di, 17.09. 20:30 0.0 l/m2 in 1 Std. -
Di, 17.09. 20:00 0.0 l/m2 in 1 Std. -
Di, 17.09. 19:30 0.0 l/m2 in 1 Std. -
Di, 17.09. 19:00 0.0 l/m2 in 1 Std. -
Di, 17.09. 18:30 0.0 l/m2 in 1 Std. -
Ortszeit Stärke Spitze Richtung
km/h Bft. km/h Grad Sektor
Di, 17.09. 20:00 11 2 31 300° NW
Di, 17.09. 14:00 14 3 25 310° NW
Di, 17.09. 8:00 13 3 22 300° NW
Di, 17.09. 2:00 11 2 15 280° W
Mo, 16.09. 20:00 4 1 32 330° NW
Mo, 16.09. 14:00 11 2 25 320° NW
Mo, 16.09. 8:00 4 1 18 120° SO
Mo, 16.09. 2:00 11 2 14 160° S
Ortszeit Stärke Spitze Richtung
km/h Bft. km/h Grad Sektor
Di, 17.09. 21:30 14 3 25 340° N
Di, 17.09. 21:20 14 3 - 340° N
Di, 17.09. 21:10 14 3 - 340° N
Di, 17.09. 21:00 13 3 20 350° N
Di, 17.09. 20:50 13 3 - 350° N
Di, 17.09. 20:40 11 2 - 330° NW
Di, 17.09. 20:30 11 2 14 300° NW
Di, 17.09. 20:00 11 2 24 300° NW
Di, 17.09. 19:30 11 2 25 300° NW
Di, 17.09. 19:00 13 3 30 300° NW
Di, 17.09. 18:30 14 3 29 310° NW
Ortszeit Untergrenze Bedeckung Gattung
total tief tief mittel hoch
Di, 17.09. 20:00 8100 m 0/8 0/8 - - -
Di, 17.09. 14:00 750 m 6/8 6/8 - - -
Di, 17.09. 8:00 330 m 8/8 8/8 - - -
Di, 17.09. 2:00 2400 m 8/8 7/8 - - -
Mo, 16.09. 20:00 3300 m 8/8 8/8 - - -
Mo, 16.09. 14:00 4800 m 8/8 7/8 - - -
Mo, 16.09. 8:00 1500 m 8/8 6/8 - - -
Mo, 16.09. 2:00 10500 m 3/8 0/8 - - -
Ortszeit Bedeckungsgrad in Achtel und Wolkenuntergrenze
Di, 17.09. 21:30 7(1380m) 7(7800m)
Di, 17.09. 21:20 7(1380m) 7(7800m)
Di, 17.09. 21:10 7(1350m) 8(7500m)
Di, 17.09. 21:00 7(1290m) 7(7800m) 8(8400m)
Di, 17.09. 20:50 7(1290m) 7(7800m) 8(8400m)
Di, 17.09. 20:40 7(1290m) 7(8100m) 8(8700m)
Di, 17.09. 20:30 2(1380m) 4(8100m) 5(8700m)
Di, 17.09. 20:00 2(8100m)
Di, 17.09. 19:30 keine Wolken
Di, 17.09. 19:00 keine Wolken
Di, 17.09. 18:30 keine Wolken
Ortszeit Luftdruck NN (hPa) Tendenz (hPa in 3 Std.)
Di, 17.09. 20:00 1020 + 0,4
Di, 17.09. 14:00 1020 - 0,4
Di, 17.09. 8:00 1019 + 0,5
Di, 17.09. 2:00 1018 - 0,1
Mo, 16.09. 20:00 1018 + 0,3
Mo, 16.09. 14:00 1019 - 1,0
Mo, 16.09. 8:00 1021 - 0,3
Mo, 16.09. 2:00 1022 - 0,4
Ortszeit Luftdruck NN (hPa) Tendenz (hPa in 3 Std.)
Di, 17.09. 21:30 1021 + 1,6
Di, 17.09. 21:20 1021 keine Meldung
Di, 17.09. 21:10 1021 keine Meldung
Di, 17.09. 21:00 1021 + 1,3
Di, 17.09. 20:50 1021 keine Meldung
Di, 17.09. 20:40 1021 keine Meldung
Di, 17.09. 20:30 1020 + 0,8
Di, 17.09. 20:00 1020 + 0,4
Di, 17.09. 19:30 1019 + 0,2
Di, 17.09. 19:00 1019 + 0,2
Di, 17.09. 18:30 1019 + 0,1
Ortszeit Schneehöhe (cm)
Di, 17.09. 20:00 -
Di, 17.09. 14:00 -
Di, 17.09. 8:00 -
Di, 17.09. 2:00 -
Mo, 16.09. 20:00 -
Mo, 16.09. 14:00 -
Mo, 16.09. 8:00 -
Mo, 16.09. 2:00 -
Ortszeit Schneehöhe (cm)
Di, 17.09. 21:30 -
Di, 17.09. 21:20 -
Di, 17.09. 21:10 -
Di, 17.09. 21:00 -
Di, 17.09. 20:50 -
Di, 17.09. 20:40 -
Di, 17.09. 20:30 -
Di, 17.09. 20:00 -
Di, 17.09. 19:30 -
Di, 17.09. 19:00 -
Di, 17.09. 18:30 -
Link zu dieser Seite / Seite empfehlen

Das Wetter in ...